Kezdőlap
METAR-TAF:

METAR-TAF

Repülőterek :

Wink, Texas, Amerikai Egyesült Államok

földrajzi szélesség: 31-46-47N, földrajzi hosszúság: 103-12-05W, magasság: 860 m

Jelenlegi meteorológiai megfigyelések

A jelentés 17 perccel ezelõtt készült, 14:53 UTC
Dél-délkeleti szél 22 kt széllökések: 33 kt
Hőmérséklet 28°C
Páratartalom 58%
Légköri nyomás 1008 hPa
Látótávolság: 16.1 km

METAR: KINK 181453Z AUTO 16022G33KT 10SM 28/19 A2976 RMK AO2 PK WND 15033/1448 SLP025 T02780194 $

Idő: 10:10 (15:10 UTC)

Előrejelzés

A jelentés 3 órával és 50 perccel ezelõtt készült, 11:20 UTC
Az előrejelzés 18-én 12 óra UTC és 19-én 12 óra UTC között érvényes
Dél-délkeleti szél 19 kt széllökések: 29 kt
Látótávolság: 10 km
Kevés felhő 9000 lábon

TAF: KINK 181120Z 1812/1912 15019G29KT P6SM FEW090

Meteorológiai megfigyelések és előrejelzések több, mint 4000 repülőtéren (METAR és TAF jelentéseket).

A térképen piros és sárga pontok jelzik az elérhető meteorológiai állomásokat.

Mozgassa az egeret a pont fölött, hogy megjelenjen az állomás neve.

Azután kattintson az időjárási megfigyelések és előrejelzések megtekintéséhez.

A térkép megváltoztatása: kattintson a fekete keresztel jelölt zöld gombra ráközelítéshez, a vonallal jelölt zöld gombra távolításhoz, vagy a zöld nyilakra a szomszédos térképek eléréséhez.


METAR-TAF: